Time;durP1;ratioP1;P1;durP2;ratioP2;P2;SDS_P1;SDS_P2;PMS_P1;PMS_P2;Temp;Humidity;BMP_temperature;BMP_pressure;BME280_temperature;BME280_humidity;BME280_pressure;Samples;Min_cycle;Max_cycle;Signal;HPM_P1;HPM_P2
2023/05/08 00:02:16;;;;;;;11.30;7.95;;;;;;;;;;4921801;29;20564;-66
2023/05/08 00:05:02;;;;;;;9.95;6.68;;;;;;;;;;4921132;29;20066;-67
2023/05/08 00:07:49;;;;;;;12.15;9.20;;;;;;;;;;4918165;29;20731;-68
2023/05/08 00:10:35;;;;;;;14.20;8.63;;;;;;;;;;4915101;29;20054;-66
2023/05/08 00:13:20;;;;;;;12.35;9.15;;;;;;;;;;4921379;28;20387;-66
2023/05/08 00:16:08;;;;;;;10.93;7.95;;;;;;;;;;4922119;29;20027;-67
2023/05/08 00:18:53;;;;;;;12.15;8.95;;;;;;;;;;4926687;29;20031;-67
2023/05/08 00:21:38;;;;;;;13.18;7.97;;;;;;;;;;4917262;29;20032;-67
2023/05/08 00:24:24;;;;;;;16.15;8.15;;;;;;;;;;4920430;29;20332;-70
2023/05/08 00:27:09;;;;;;;12.95;10.38;;;;;;;;;;4916243;29;20044;-68
2023/05/08 00:29:54;;;;;;;12.13;9.00;;;;;;;;;;4920727;29;20109;-68
2023/05/08 00:32:39;;;;;;;12.55;8.73;;;;;;;;;;4915513;29;20067;-68
2023/05/08 00:35:25;;;;;;;12.65;8.75;;;;;;;;;;4925080;29;20040;-67
2023/05/08 00:38:10;;;;;;;11.30;9.18;;;;;;;;;;4910487;29;20586;-67
2023/05/08 00:40:55;;;;;;;11.07;8.73;;;;;;;;;;4912828;29;20491;-70
2023/05/08 00:43:40;;;;;;;11.18;9.05;;;;;;;;;;4921105;29;20039;-70
2023/05/08 00:46:26;;;;;;;13.45;9.93;;;;;;;;;;4927570;29;20051;-75
2023/05/08 00:49:13;;;;;;;10.95;7.80;;;;;;;;;;4917800;29;20048;-77
2023/05/08 00:51:58;;;;;;;12.18;9.52;;;;;;;;;;4920098;29;20109;-76
2023/05/08 00:54:44;;;;;;;15.20;10.48;;;;;;;;;;4919127;29;20497;-76
2023/05/08 00:57:31;;;;;;;15.18;10.48;;;;;;;;;;4922703;29;20571;-76
2023/05/08 01:00:17;;;;;;;14.48;10.88;;;;;;;;;;4925115;29;20040;-76
2023/05/08 01:03:03;;;;;;;12.90;9.32;;;;;;;;;;4904202;29;20043;-78
2023/05/08 01:05:48;;;;;;;16.33;11.52;;;;;;;;;;4920884;29;20570;-67
2023/05/08 01:08:33;;;;;;;13.07;9.75;;;;;;;;;;4925132;29;20482;-67
2023/05/08 01:11:23;;;;;;;17.27;10.82;;;;;;;;;;4916794;29;20483;-68
2023/05/08 01:14:09;;;;;;;13.73;8.88;;;;;;;;;;4919012;29;20035;-68
2023/05/08 01:17:01;;;;;;;15.43;10.85;;;;;;;;;;4926221;29;20215;-68
2023/05/08 01:19:46;;;;;;;13.13;10.18;;;;;;;;;;4922099;29;20487;-68
2023/05/08 01:22:34;;;;;;;16.67;11.55;;;;;;;;;;4921753;29;20478;-71
2023/05/08 01:25:20;;;;;;;15.75;9.45;;;;;;;;;;4915246;29;20130;-68
2023/05/08 01:28:25;;;;;;;16.90;12.02;;;;;;;;;;4925004;29;20036;-68
2023/05/08 01:31:33;;;;;;;17.10;10.95;;;;;;;;;;4919972;28;20074;-67
2023/05/08 01:34:29;;;;;;;14.63;10.52;;;;;;;;;;4920065;29;20486;-68
2023/05/08 01:37:15;;;;;;;14.27;11.15;;;;;;;;;;4922797;29;20039;-68
2023/05/08 01:40:04;;;;;;;16.98;11.75;;;;;;;;;;4908977;29;20082;-75
2023/05/08 01:42:56;;;;;;;13.95;10.20;;;;;;;;;;4915163;29;20063;-71
2023/05/08 01:45:44;;;;;;;16.20;11.20;;;;;;;;;;4921328;29;20372;-69
2023/05/08 01:48:31;;;;;;;17.88;10.90;;;;;;;;;;4929049;29;20090;-69
2023/05/08 01:51:18;;;;;;;15.73;11.00;;;;;;;;;;4920341;29;20043;-68
2023/05/08 01:54:04;;;;;;;15.13;10.40;;;;;;;;;;4923213;29;20537;-69
2023/05/08 01:56:51;;;;;;;16.00;10.82;;;;;;;;;;4925939;29;20024;-66
2023/05/08 01:59:38;;;;;;;15.27;10.57;;;;;;;;;;4917545;29;20036;-75
2023/05/08 02:02:23;;;;;;;14.13;9.27;;;;;;;;;;4922308;28;20042;-67
2023/05/08 02:05:09;;;;;;;16.00;10.65;;;;;;;;;;4933274;28;20479;-66
2023/05/08 02:07:55;;;;;;;14.80;10.43;;;;;;;;;;4925299;29;20047;-66
2023/05/08 02:10:41;;;;;;;14.02;10.85;;;;;;;;;;4925656;29;20043;-65
2023/05/08 02:13:27;;;;;;;13.55;9.73;;;;;;;;;;4918424;29;20039;-65
2023/05/08 02:16:13;;;;;;;13.43;9.60;;;;;;;;;;4921085;29;20125;-69
2023/05/08 02:18:59;;;;;;;11.85;9.18;;;;;;;;;;4919131;29;20028;-66
2023/05/08 02:21:45;;;;;;;15.43;9.90;;;;;;;;;;4927033;29;20552;-67
2023/05/08 02:24:31;;;;;;;13.32;9.85;;;;;;;;;;4916156;29;20043;-65
2023/05/08 02:27:16;;;;;;;14.15;10.98;;;;;;;;;;4918869;29;20525;-67
2023/05/08 02:30:02;;;;;;;15.82;10.70;;;;;;;;;;4923712;29;20039;-67
2023/05/08 02:32:48;;;;;;;16.45;11.25;;;;;;;;;;4929825;28;20032;-66
2023/05/08 02:35:34;;;;;;;15.85;12.27;;;;;;;;;;4928892;29;20040;-65
2023/05/08 02:38:20;;;;;;;13.63;10.15;;;;;;;;;;4919422;29;20479;-66
2023/05/08 02:41:06;;;;;;;16.05;10.80;;;;;;;;;;4917721;29;20028;-66
2023/05/08 02:43:52;;;;;;;15.48;9.93;;;;;;;;;;4920170;29;20387;-66
2023/05/08 02:46:50;;;;;;;13.52;10.25;;;;;;;;;;4925911;28;20042;-66
2023/05/08 02:49:48;;;;;;;12.13;9.65;;;;;;;;;;4914914;29;20066;-65
2023/05/08 02:52:43;;;;;;;14.88;10.52;;;;;;;;;;4932211;29;20556;-66
2023/05/08 02:55:33;;;;;;;14.73;10.75;;;;;;;;;;4920951;29;20044;-70
2023/05/08 02:58:18;;;;;;;;;;;;;;;;;;4996725;28;20032;-70
2023/05/08 03:01:06;;;;;;;16.67;11.50;;;;;;;;;;4916384;29;19914;-70
2023/05/08 03:04:03;;;;;;;17.33;11.43;;;;;;;;;;4924802;29;20394;-70
2023/05/08 03:06:49;;;;;;;12.68;9.25;;;;;;;;;;4920269;28;20040;-70
2023/05/08 03:09:40;;;;;;;17.95;11.82;;;;;;;;;;4929491;29;20031;-70
2023/05/08 03:12:26;;;;;;;16.65;10.68;;;;;;;;;;4934654;28;20474;-70
2023/05/08 03:15:18;;;;;;;14.63;10.98;;;;;;;;;;4929393;29;20047;-64
2023/05/08 03:18:08;;;;;;;12.13;8.95;;;;;;;;;;4939980;28;20032;-66
2023/05/08 03:20:55;;;;;;;18.00;12.68;;;;;;;;;;4928784;29;20050;-65
2023/05/08 03:23:41;;;;;;;14.20;10.02;;;;;;;;;;4928946;29;20034;-65
2023/05/08 03:26:26;;;;;;;17.67;11.82;;;;;;;;;;4938798;28;20047;-65
2023/05/08 03:29:12;;;;;;;18.50;10.95;;;;;;;;;;4926610;29;20432;-66
2023/05/08 03:31:59;;;;;;;14.77;11.40;;;;;;;;;;4928078;29;20038;-75
2023/05/08 03:34:45;;;;;;;16.02;10.02;;;;;;;;;;4922626;29;20661;-68
2023/05/08 03:37:30;;;;;;;16.98;9.93;;;;;;;;;;4913261;29;20028;-67
2023/05/08 03:40:16;;;;;;;15.60;9.40;;;;;;;;;;4915985;29;20438;-67
2023/05/08 03:43:01;;;;;;;16.58;10.95;;;;;;;;;;4920115;29;20028;-66
2023/05/08 03:45:46;;;;;;;11.90;8.77;;;;;;;;;;4917509;29;20055;-67
2023/05/08 03:48:35;;;;;;;13.05;9.77;;;;;;;;;;4916313;29;20024;-71
2023/05/08 03:51:20;;;;;;;15.02;9.85;;;;;;;;;;4913899;29;20118;-67
2023/05/08 03:54:06;;;;;;;13.45;8.82;;;;;;;;;;4914928;29;20493;-67
2023/05/08 03:56:52;;;;;;;14.15;9.75;;;;;;;;;;4938626;28;20023;-67
2023/05/08 03:59:50;;;;;;;14.82;10.88;;;;;;;;;;4918694;29;20394;-66
2023/05/08 04:02:54;;;;;;;14.50;11.63;;;;;;;;;;4919948;29;20028;-68
2023/05/08 04:05:48;;;;;;;16.50;11.40;;;;;;;;;;4925492;29;20134;-74
2023/05/08 04:08:41;;;;;;;13.95;10.57;;;;;;;;;;4922865;28;20024;-74
2023/05/08 04:11:29;;;;;;;16.65;10.48;;;;;;;;;;4922338;29;20230;-64
2023/05/08 04:14:15;;;;;;;13.07;9.77;;;;;;;;;;4922785;29;20081;-66
2023/05/08 04:17:02;;;;;;;15.90;10.70;;;;;;;;;;4920184;29;20023;-71
2023/05/08 04:19:51;;;;;;;20.35;11.45;;;;;;;;;;4917737;29;20387;-68
2023/05/08 04:22:37;;;;;;;12.55;10.18;;;;;;;;;;4933822;28;20032;-67
2023/05/08 04:25:22;;;;;;;14.77;11.13;;;;;;;;;;4914721;29;20195;-70
2023/05/08 04:28:08;;;;;;;14.20;9.73;;;;;;;;;;4942766;28;20113;-66
2023/05/08 04:30:54;;;;;;;14.77;12.07;;;;;;;;;;4924907;29;20024;-66
2023/05/08 04:33:41;;;;;;;16.27;11.27;;;;;;;;;;4919155;29;20470;-67
2023/05/08 04:36:29;;;;;;;16.40;12.00;;;;;;;;;;4931280;28;20040;-67
2023/05/08 04:39:14;;;;;;;18.20;12.38;;;;;;;;;;4915915;29;20141;-67
2023/05/08 04:42:03;;;;;;;19.92;13.02;;;;;;;;;;4916512;29;20047;-70
2023/05/08 04:44:49;;;;;;;15.88;11.65;;;;;;;;;;4915212;29;20483;-68
2023/05/08 04:47:34;;;;;;;15.30;10.38;;;;;;;;;;4924133;29;20043;-69
2023/05/08 04:50:19;;;;;;;16.95;11.52;;;;;;;;;;4924206;29;20825;-67
2023/05/08 04:53:04;;;;;;;16.98;11.55;;;;;;;;;;4926761;29;20474;-66
2023/05/08 04:55:51;;;;;;;15.57;11.48;;;;;;;;;;4926009;29;20039;-67
2023/05/08 04:58:36;;;;;;;14.43;10.30;;;;;;;;;;4929087;28;20071;-66
2023/05/08 05:01:21;;;;;;;14.07;10.65;;;;;;;;;;4923965;29;20158;-78
2023/05/08 05:04:06;;;;;;;20.77;11.18;;;;;;;;;;4920638;29;20046;-68
2023/05/08 05:06:52;;;;;;;14.75;10.68;;;;;;;;;;4932047;28;20025;-68
2023/05/08 05:09:38;;;;;;;13.85;10.35;;;;;;;;;;4920110;29;20098;-68
2023/05/08 05:12:23;;;;;;;11.43;10.18;;;;;;;;;;4919571;29;20032;-71
2023/05/08 05:15:09;;;;;;;19.92;11.05;;;;;;;;;;4914808;29;20043;-68
2023/05/08 05:17:54;;;;;;;14.75;11.27;;;;;;;;;;4921133;29;20028;-68
2023/05/08 05:20:39;;;;;;;14.43;11.30;;;;;;;;;;4921001;29;20024;-76
2023/05/08 05:23:24;;;;;;;14.18;10.98;;;;;;;;;;4923178;28;20132;-76
2023/05/08 05:26:10;;;;;;;16.42;11.05;;;;;;;;;;4922971;29;20474;-76
2023/05/08 05:28:55;;;;;;;15.73;10.82;;;;;;;;;;4926870;29;20039;-77
2023/05/08 05:31:41;;;;;;;10.93;8.65;;;;;;;;;;4926350;29;20024;-78
2023/05/08 05:34:26;;;;;;;12.82;9.52;;;;;;;;;;4931019;29;20047;-76
2023/05/08 05:37:11;;;;;;;14.07;10.75;;;;;;;;;;4922908;29;20619;-76
2023/05/08 05:39:56;;;;;;;16.40;11.68;;;;;;;;;;4904011;29;20027;-77
2023/05/08 05:42:47;;;;;;;16.40;11.48;;;;;;;;;;4922843;29;20117;-76
2023/05/08 05:45:32;;;;;;;19.30;12.23;;;;;;;;;;4925786;29;20032;-76
2023/05/08 05:48:17;;;;;;;13.23;9.82;;;;;;;;;;4927642;29;20045;-76
2023/05/08 05:51:03;;;;;;;15.38;11.25;;;;;;;;;;4923176;29;20038;-77
2023/05/08 05:53:48;;;;;;;12.07;10.07;;;;;;;;;;4923090;29;20063;-76
2023/05/08 05:56:33;;;;;;;15.35;12.35;;;;;;;;;;4917069;29;20539;-73
2023/05/08 05:59:18;;;;;;;13.90;10.90;;;;;;;;;;4927755;28;20293;-70
2023/05/08 06:02:04;;;;;;;17.92;13.23;;;;;;;;;;4923023;28;20119;-78
2023/05/08 06:04:50;;;;;;;14.75;11.15;;;;;;;;;;4935485;28;20016;-81
2023/05/08 06:07:35;;;;;;;15.38;10.68;;;;;;;;;;4924232;29;20038;-81
2023/05/08 06:10:32;;;;;;;13.52;10.50;;;;;;;;;;4926298;29;20106;-82
2023/05/08 06:13:18;;;;;;;12.35;9.75;;;;;;;;;;4924984;28;20162;-79
2023/05/08 06:16:04;;;;;;;14.45;11.00;;;;;;;;;;4928054;28;20119;-65
2023/05/08 06:18:50;;;;;;;14.32;10.57;;;;;;;;;;4914957;29;20085;-71
2023/05/08 06:21:35;;;;;;;12.82;9.63;;;;;;;;;;4942792;28;20039;-70
2023/05/08 06:24:20;;;;;;;17.38;11.07;;;;;;;;;;4925879;29;20032;-73
2023/05/08 06:27:06;;;;;;;14.73;11.23;;;;;;;;;;4930389;28;20051;-71
2023/05/08 06:29:52;;;;;;;15.63;10.68;;;;;;;;;;4957230;28;20101;-70
2023/05/08 06:32:37;;;;;;;12.45;10.35;;;;;;;;;;4929707;28;20085;-68
2023/05/08 06:35:22;;;;;;;14.15;9.63;;;;;;;;;;4941621;28;20158;-70
2023/05/08 06:38:08;;;;;;;16.13;11.25;;;;;;;;;;4930100;29;20115;-69
2023/05/08 06:40:54;;;;;;;12.13;9.38;;;;;;;;;;4927613;29;20671;-71
2023/05/08 06:43:39;;;;;;;30.73;10.88;;;;;;;;;;4927453;29;20433;-70
2023/05/08 06:46:24;;;;;;;13.57;8.90;;;;;;;;;;4924974;29;20040;-71
2023/05/08 06:49:10;;;;;;;15.55;9.40;;;;;;;;;;4923036;29;20433;-69
2023/05/08 06:51:55;;;;;;;13.18;9.43;;;;;;;;;;4928768;29;20026;-68
2023/05/08 06:54:40;;;;;;;13.80;9.93;;;;;;;;;;4928287;29;20028;-69
2023/05/08 06:57:28;;;;;;;12.10;9.13;;;;;;;;;;4927843;29;20024;-69
2023/05/08 07:00:13;;;;;;;11.77;8.60;;;;;;;;;;4947665;28;20071;-69
2023/05/08 07:02:58;;;;;;;14.10;9.98;;;;;;;;;;4941927;28;20054;-71
2023/05/08 07:05:44;;;;;;;13.65;9.48;;;;;;;;;;4927422;29;20082;-71
2023/05/08 07:08:29;;;;;;;12.68;9.57;;;;;;;;;;4929430;29;20067;-70
2023/05/08 07:11:14;;;;;;;12.02;9.23;;;;;;;;;;4925456;29;20771;-70
2023/05/08 07:13:59;;;;;;;13.30;10.73;;;;;;;;;;4924890;29;20070;-80
2023/05/08 07:16:44;;;;;;;12.43;9.77;;;;;;;;;;4927646;29;20030;-77
2023/05/08 07:19:30;;;;;;;12.18;10.07;;;;;;;;;;4925244;29;20159;-75
2023/05/08 07:22:16;;;;;;;14.38;9.95;;;;;;;;;;4927417;29;20395;-76
2023/05/08 07:25:01;;;;;;;12.80;9.00;;;;;;;;;;4927739;28;20035;-80
2023/05/08 07:27:46;;;;;;;12.90;9.43;;;;;;;;;;4927169;28;20044;-78
2023/05/08 07:30:32;;;;;;;12.07;8.60;;;;;;;;;;4920857;28;20043;-68
2023/05/08 07:33:18;;;;;;;13.27;9.57;;;;;;;;;;4928042;29;20044;-68
2023/05/08 07:36:03;;;;;;;13.50;10.63;;;;;;;;;;4929759;28;20043;-69
2023/05/08 07:38:48;;;;;;;12.27;10.00;;;;;;;;;;4938078;28;20039;-67
2023/05/08 07:41:35;;;;;;;14.55;10.55;;;;;;;;;;4935456;29;20031;-69
2023/05/08 07:44:21;;;;;;;11.15;8.27;;;;;;;;;;4924362;29;20098;-70
2023/05/08 07:47:06;;;;;;;11.63;9.25;;;;;;;;;;4924052;29;20035;-66
2023/05/08 07:49:52;;;;;;;11.55;8.52;;;;;;;;;;4923703;29;20031;-66
2023/05/08 07:52:37;;;;;;;12.27;9.73;;;;;;;;;;4927383;29;20475;-68
2023/05/08 07:55:22;;;;;;;12.77;10.05;;;;;;;;;;4926223;29;20041;-69
2023/05/08 07:58:07;;;;;;;10.93;8.80;;;;;;;;;;4938890;28;20048;-69
2023/05/08 08:00:53;;;;;;;10.73;8.70;;;;;;;;;;4936154;28;20106;-70
2023/05/08 08:03:38;;;;;;;12.52;9.13;;;;;;;;;;4927102;29;20466;-69
2023/05/08 08:06:23;;;;;;;13.13;10.10;;;;;;;;;;4938249;28;20493;-70
2023/05/08 08:09:08;;;;;;;11.18;8.75;;;;;;;;;;4926021;29;20047;-70
2023/05/08 08:11:53;;;;;;;10.63;8.40;;;;;;;;;;4926867;28;20042;-69
2023/05/08 08:14:38;;;;;;;10.82;7.70;;;;;;;;;;4942762;28;20023;-69
2023/05/08 08:17:24;;;;;;;12.45;8.05;;;;;;;;;;4925296;29;20375;-69
2023/05/08 08:20:09;;;;;;;9.15;6.32;;;;;;;;;;4924396;29;20130;-69
2023/05/08 08:22:54;;;;;;;10.23;6.78;;;;;;;;;;4927749;29;20081;-70
2023/05/08 08:25:40;;;;;;;8.00;6.45;;;;;;;;;;4905943;28;20039;-66
2023/05/08 08:28:25;;;;;;;11.93;7.65;;;;;;;;;;4930645;28;20035;-74
2023/05/08 08:31:10;;;;;;;9.98;7.20;;;;;;;;;;4925192;28;20090;-77
2023/05/08 08:33:56;;;;;;;9.30;6.60;;;;;;;;;;4926143;29;20038;-78
2023/05/08 08:36:41;;;;;;;12.63;7.72;;;;;;;;;;4921738;29;20028;-79
2023/05/08 08:39:26;;;;;;;10.77;7.00;;;;;;;;;;4932889;28;20051;-76
2023/05/08 08:42:12;;;;;;;10.70;7.38;;;;;;;;;;4948415;28;20410;-69
2023/05/08 08:44:57;;;;;;;8.77;5.88;;;;;;;;;;4929296;29;20056;-74
2023/05/08 08:47:43;;;;;;;9.32;7.03;;;;;;;;;;4937843;28;20036;-73
2023/05/08 08:50:32;;;;;;;8.00;5.55;;;;;;;;;;4926627;29;20032;-71
2023/05/08 08:53:24;;;;;;;9.05;5.03;;;;;;;;;;4929336;29;20379;-73
2023/05/08 08:56:10;;;;;;;13.48;6.40;;;;;;;;;;4942342;28;20497;-80
2023/05/08 08:58:58;;;;;;;8.70;5.93;;;;;;;;;;4930525;28;20432;-72
2023/05/08 09:01:44;;;;;;;7.43;5.05;;;;;;;;;;4927257;29;20035;-67
2023/05/08 09:04:30;;;;;;;9.30;5.88;;;;;;;;;;4930068;29;20032;-70
2023/05/08 09:07:16;;;;;;;8.77;5.50;;;;;;;;;;4929560;29;20031;-70
2023/05/08 09:10:04;;;;;;;10.25;5.85;;;;;;;;;;4928205;29;20447;-69
2023/05/08 09:12:49;;;;;;;9.90;5.78;;;;;;;;;;4925725;28;20074;-69
2023/05/08 09:15:35;;;;;;;9.80;5.32;;;;;;;;;;4930619;29;20078;-70
2023/05/08 09:18:20;;;;;;;10.35;5.47;;;;;;;;;;4934058;29;20455;-67
2023/05/08 09:21:05;;;;;;;12.13;6.20;;;;;;;;;;4929352;29;20077;-71
2023/05/08 09:24:01;;;;;;;10.70;6.97;;;;;;;;;;4928240;29;20031;-73
2023/05/08 09:26:46;;;;;;;8.95;5.80;;;;;;;;;;4932167;28;20490;-71
2023/05/08 09:29:31;;;;;;;8.32;5.18;;;;;;;;;;4928410;29;20044;-74
2023/05/08 09:32:17;;;;;;;11.45;5.93;;;;;;;;;;4926914;29;20047;-70
2023/05/08 09:35:03;;;;;;;8.82;5.85;;;;;;;;;;4949348;28;20037;-74
2023/05/08 09:37:48;;;;;;;13.13;6.13;;;;;;;;;;4943068;28;20032;-72
2023/05/08 09:40:35;;;;;;;10.02;6.68;;;;;;;;;;4925975;29;20030;-67
2023/05/08 09:43:20;;;;;;;10.35;7.05;;;;;;;;;;4924731;29;20051;-68
2023/05/08 09:46:22;;;;;;;9.77;6.97;;;;;;;;;;4922734;29;20424;-67
2023/05/08 09:49:15;;;;;;;10.10;6.30;;;;;;;;;;4947641;28;20218;-71
2023/05/08 09:52:00;;;;;;;13.45;7.88;;;;;;;;;;4928632;29;20040;-67
2023/05/08 09:54:45;;;;;;;8.88;6.15;;;;;;;;;;4930719;28;20097;-68
2023/05/08 09:57:31;;;;;;;9.75;6.57;;;;;;;;;;4926123;29;20044;-68
2023/05/08 10:00:17;;;;;;;10.43;6.32;;;;;;;;;;4927022;29;20110;-73
2023/05/08 10:03:02;;;;;;;10.68;6.63;;;;;;;;;;4929402;29;20715;-76
2023/05/08 10:05:48;;;;;;;12.02;7.28;;;;;;;;;;4922547;28;20036;-73
2023/05/08 10:08:33;;;;;;;10.57;6.32;;;;;;;;;;4929351;29;20038;-74
2023/05/08 10:11:18;;;;;;;11.25;5.85;;;;;;;;;;4936644;28;20040;-75
2023/05/08 10:14:04;;;;;;;10.20;6.78;;;;;;;;;;4920706;29;20071;-69
2023/05/08 10:16:51;;;;;;;8.88;5.38;;;;;;;;;;4923935;29;20378;-66
2023/05/08 10:19:39;;;;;;;8.15;5.45;;;;;;;;;;4930494;29;20221;-63
2023/05/08 10:22:24;;;;;;;8.02;5.75;;;;;;;;;;4928661;29;20059;-65
2023/05/08 10:25:14;;;;;;;8.10;5.95;;;;;;;;;;4925149;29;20043;-69
2023/05/08 10:28:10;;;;;;;7.80;4.75;;;;;;;;;;4928522;29;20035;-70
2023/05/08 10:30:58;;;;;;;6.72;4.35;;;;;;;;;;4926621;29;20593;-69
2023/05/08 10:33:44;;;;;;;5.38;3.50;;;;;;;;;;4926762;29;21031;-70
2023/05/08 10:36:30;;;;;;;7.53;4.30;;;;;;;;;;4923902;29;20115;-77
2023/05/08 10:39:16;;;;;;;7.25;3.70;;;;;;;;;;4924176;29;20054;-79
2023/05/08 10:42:02;;;;;;;6.65;3.97;;;;;;;;;;4926651;29;20105;-78
2023/05/08 10:44:47;;;;;;;6.63;4.03;;;;;;;;;;4922996;29;20032;-78
2023/05/08 10:47:45;;;;;;;6.93;4.25;;;;;;;;;;4921251;28;20040;-78
2023/05/08 10:50:50;;;;;;;6.57;3.83;;;;;;;;;;4927702;28;20298;-68
2023/05/08 10:53:47;;;;;;;5.25;3.40;;;;;;;;;;4922977;29;20034;-78
2023/05/08 10:56:36;;;;;;;7.18;3.75;;;;;;;;;;4934229;28;20144;-79
2023/05/08 10:59:22;;;;;;;4.53;2.90;;;;;;;;;;4939495;28;20035;-78
2023/05/08 11:02:07;;;;;;;5.57;3.90;;;;;;;;;;4928156;29;20082;-76
2023/05/08 11:04:53;;;;;;;5.88;3.45;;;;;;;;;;4923943;28;20402;-75
2023/05/08 11:07:55;;;;;;;5.78;3.55;;;;;;;;;;4926585;29;20036;-73
2023/05/08 11:10:40;;;;;;;4.95;3.42;;;;;;;;;;4940555;28;20534;-66
2023/05/08 11:13:28;;;;;;;6.43;3.90;;;;;;;;;;4924115;29;20375;-72
2023/05/08 11:16:14;;;;;;;4.97;3.40;;;;;;;;;;4924308;29;20043;-70
2023/05/08 11:19:18;;;;;;;6.93;3.55;;;;;;;;;;4923921;29;20127;-71
2023/05/08 11:22:10;;;;;;;5.88;3.80;;;;;;;;;;4952383;28;20089;-74
2023/05/08 11:25:00;;;;;;;6.70;4.18;;;;;;;;;;4935666;29;20058;-73
2023/05/08 11:27:45;;;;;;;5.38;2.95;;;;;;;;;;4928296;28;20101;-67
2023/05/08 11:30:31;;;;;;;3.97;3.03;;;;;;;;;;4919888;29;20101;-67
2023/05/08 11:33:16;;;;;;;4.15;3.00;;;;;;;;;;4925022;29;20067;-65
2023/05/08 11:36:13;;;;;;;4.15;3.20;;;;;;;;;;4926942;29;20035;-66
2023/05/08 11:39:06;;;;;;;6.28;4.00;;;;;;;;;;4952519;28;20039;-65
2023/05/08 11:41:51;;;;;;;6.88;4.50;;;;;;;;;;4932970;28;20035;-64
2023/05/08 11:44:37;;;;;;;7.38;4.70;;;;;;;;;;4924177;29;20421;-67
2023/05/08 11:47:24;;;;;;;7.93;5.25;;;;;;;;;;4926167;29;20035;-69
2023/05/08 11:50:10;;;;;;;6.53;4.60;;;;;;;;;;4927078;28;20054;-66
2023/05/08 11:52:55;;;;;;;6.85;4.18;;;;;;;;;;4935435;28;20044;-66
2023/05/08 11:55:41;;;;;;;13.05;5.78;;;;;;;;;;4929738;29;20089;-67
2023/05/08 11:58:26;;;;;;;7.15;5.15;;;;;;;;;;4926109;29;20035;-67
2023/05/08 12:01:15;;;;;;;7.45;5.30;;;;;;;;;;4982366;28;20047;-68
2023/05/08 12:04:05;;;;;;;6.88;5.18;;;;;;;;;;4926514;29;20024;-73
2023/05/08 12:06:55;;;;;;;8.05;5.55;;;;;;;;;;4912709;29;20076;-70
2023/05/08 12:09:41;;;;;;;7.80;5.93;;;;;;;;;;4926471;29;20034;-79
2023/05/08 12:12:39;;;;;;;7.38;5.18;;;;;;;;;;4914985;28;20078;-81
2023/05/08 12:15:24;;;;;;;8.80;6.82;;;;;;;;;;4935092;28;20414;-79
2023/05/08 12:18:09;;;;;;;8.88;6.13;;;;;;;;;;4933797;29;20110;-78
2023/05/08 12:20:56;;;;;;;8.82;6.63;;;;;;;;;;4928668;28;20032;-79
2023/05/08 12:23:41;;;;;;;8.80;6.32;;;;;;;;;;4935624;28;20038;-70
2023/05/08 12:26:26;;;;;;;12.50;7.45;;;;;;;;;;4944848;28;20036;-69
2023/05/08 12:29:12;;;;;;;10.15;6.88;;;;;;;;;;4977077;28;20038;-68
2023/05/08 12:31:57;;;;;;;8.52;6.47;;;;;;;;;;4942271;28;20098;-66
2023/05/08 12:34:42;;;;;;;11.75;7.47;;;;;;;;;;4924116;29;20302;-67
2023/05/08 12:37:28;;;;;;;9.05;6.93;;;;;;;;;;4920706;29;20378;-67
2023/05/08 12:40:26;;;;;;;9.60;6.97;;;;;;;;;;4926941;29;20074;-68
2023/05/08 12:43:11;;;;;;;8.27;5.80;;;;;;;;;;4925641;28;20027;-68
2023/05/08 12:45:57;;;;;;;11.20;6.90;;;;;;;;;;4926056;29;20118;-65
2023/05/08 12:48:42;;;;;;;7.57;5.70;;;;;;;;;;4922078;28;20555;-66
2023/05/08 12:51:30;;;;;;;9.13;6.00;;;;;;;;;;4924579;29;20070;-66
2023/05/08 12:54:15;;;;;;;7.53;5.20;;;;;;;;;;4925103;29;20102;-67
2023/05/08 12:57:00;;;;;;;8.18;5.65;;;;;;;;;;4922240;29;20032;-67
2023/05/08 12:59:45;;;;;;;8.25;5.78;;;;;;;;;;4924512;29;20086;-73
2023/05/08 13:02:30;;;;;;;8.18;5.40;;;;;;;;;;4930657;29;20106;-66
2023/05/08 13:05:19;;;;;;;8.60;5.70;;;;;;;;;;4924648;29;20031;-67
2023/05/08 13:08:08;;;;;;;7.18;4.95;;;;;;;;;;4922973;29;20028;-66
2023/05/08 13:10:54;;;;;;;7.60;4.38;;;;;;;;;;4922914;28;20032;-67
2023/05/08 13:13:39;;;;;;;8.60;5.90;;;;;;;;;;4925873;29;20024;-67
2023/05/08 13:16:25;;;;;;;7.55;5.28;;;;;;;;;;4926022;29;20059;-67
2023/05/08 13:19:10;;;;;;;8.23;5.30;;;;;;;;;;4924317;29;20106;-71
2023/05/08 13:21:55;;;;;;;9.40;5.45;;;;;;;;;;4924907;29;20418;-69
2023/05/08 13:24:41;;;;;;;9.20;5.97;;;;;;;;;;4921296;28;20039;-71
2023/05/08 13:27:26;;;;;;;8.30;5.55;;;;;;;;;;4922315;29;20362;-71
2023/05/08 13:30:12;;;;;;;8.60;6.10;;;;;;;;;;4926977;29;20036;-71
2023/05/08 13:32:57;;;;;;;8.40;5.90;;;;;;;;;;4933510;29;20036;-68
2023/05/08 13:35:42;;;;;;;6.97;4.93;;;;;;;;;;4924610;29;20078;-69
2023/05/08 13:38:27;;;;;;;10.65;7.25;;;;;;;;;;4939688;28;20040;-67
2023/05/08 13:41:12;;;;;;;8.85;6.72;;;;;;;;;;4926252;29;20036;-66
2023/05/08 13:43:58;;;;;;;9.77;6.97;;;;;;;;;;4926699;29;20027;-65
2023/05/08 13:46:43;;;;;;;10.65;6.63;;;;;;;;;;4927135;29;20082;-68
2023/05/08 13:49:28;;;;;;;10.55;7.18;;;;;;;;;;4925739;29;20039;-68
2023/05/08 13:52:13;;;;;;;11.27;8.15;;;;;;;;;;4928871;29;20039;-66
2023/05/08 13:54:59;;;;;;;11.15;7.03;;;;;;;;;;4923939;29;20478;-69
2023/05/08 13:57:44;;;;;;;9.20;6.97;;;;;;;;;;4927477;29;20062;-70
2023/05/08 14:00:29;;;;;;;11.02;7.72;;;;;;;;;;4929099;29;20378;-70
2023/05/08 14:03:14;;;;;;;12.48;7.50;;;;;;;;;;4926504;29;20090;-70
2023/05/08 14:06:00;;;;;;;8.20;6.20;;;;;;;;;;4941079;28;20034;-68
2023/05/08 14:08:46;;;;;;;11.60;7.97;;;;;;;;;;4926113;29;20036;-68
2023/05/08 14:11:31;;;;;;;10.63;7.88;;;;;;;;;;4954548;28;20118;-68
2023/05/08 14:14:16;;;;;;;13.60;8.48;;;;;;;;;;4925670;29;20483;-64
2023/05/08 14:17:03;;;;;;;11.07;8.15;;;;;;;;;;4936684;28;20031;-75
2023/05/08 14:19:48;;;;;;;11.25;8.02;;;;;;;;;;4955426;28;20039;-76
2023/05/08 14:22:33;;;;;;;14.75;8.18;;;;;;;;;;4928219;28;20505;-72
2023/05/08 14:25:18;;;;;;;11.13;7.97;;;;;;;;;;4926756;29;20039;-75
2023/05/08 14:28:04;;;;;;;13.38;8.27;;;;;;;;;;4920965;29;20439;-76
2023/05/08 14:30:49;;;;;;;11.38;7.72;;;;;;;;;;4941311;28;20571;-73
2023/05/08 14:33:34;;;;;;;12.38;8.25;;;;;;;;;;4927060;29;20237;-68
2023/05/08 14:36:19;;;;;;;19.90;8.07;;;;;;;;;;4928522;29;20043;-79
2023/05/08 14:39:05;;;;;;;13.20;10.43;;;;;;;;;;4927786;29;20077;-82
2023/05/08 14:41:50;;;;;;;11.27;8.45;;;;;;;;;;4928220;29;20052;-78
2023/05/08 14:44:35;;;;;;;12.13;8.13;;;;;;;;;;4919356;28;20196;-80
2023/05/08 14:47:22;;;;;;;11.90;7.95;;;;;;;;;;4941353;28;20182;-81
2023/05/08 14:50:07;;;;;;;12.77;10.02;;;;;;;;;;4926959;29;20078;-64
2023/05/08 14:52:53;;;;;;;13.32;10.07;;;;;;;;;;4935813;28;20027;-69
2023/05/08 14:55:38;;;;;;;12.90;9.00;;;;;;;;;;4923879;29;20482;-70
2023/05/08 14:58:23;;;;;;;15.82;9.88;;;;;;;;;;4964784;28;20131;-71
2023/05/08 15:01:08;;;;;;;12.07;8.68;;;;;;;;;;4920930;29;20402;-70
2023/05/08 15:03:53;;;;;;;13.02;8.65;;;;;;;;;;4921853;29;20035;-73
2023/05/08 15:06:39;;;;;;;12.55;10.05;;;;;;;;;;4920721;28;20036;-72
2023/05/08 15:09:24;;;;;;;13.43;10.43;;;;;;;;;;4936333;29;20031;-78
2023/05/08 15:12:10;;;;;;;16.55;9.68;;;;;;;;;;4933614;28;20067;-78
2023/05/08 15:14:56;;;;;;;15.52;10.77;;;;;;;;;;4932745;28;20032;-77
2023/05/08 15:17:41;;;;;;;14.23;10.13;;;;;;;;;;4923330;29;20047;-78
2023/05/08 15:20:26;;;;;;;17.48;10.63;;;;;;;;;;4927587;29;20045;-79
2023/05/08 15:23:11;;;;;;;15.18;11.60;;;;;;;;;;4924865;29;20059;-79
2023/05/08 15:25:57;;;;;;;20.05;11.85;;;;;;;;;;4937399;28;20031;-79
2023/05/08 15:28:42;;;;;;;17.73;10.38;;;;;;;;;;4926032;29;20501;-73
2023/05/08 15:31:27;;;;;;;14.65;11.63;;;;;;;;;;4920967;28;20426;-67
2023/05/08 15:34:13;;;;;;;15.52;12.40;;;;;;;;;;4923241;29;20032;-66
2023/05/08 15:36:58;;;;;;;18.10;11.73;;;;;;;;;;4930194;28;20035;-64
2023/05/08 15:39:43;;;;;;;17.80;12.07;;;;;;;;;;4947761;28;20319;-65
2023/05/08 15:42:28;;;;;;;15.75;12.55;;;;;;;;;;4982966;28;20035;-63
2023/05/08 15:45:15;;;;;;;16.33;12.43;;;;;;;;;;4924962;29;20039;-67
2023/05/08 15:48:00;;;;;;;13.80;10.60;;;;;;;;;;4924973;29;20118;-69
2023/05/08 15:50:45;;;;;;;14.73;12.70;;;;;;;;;;4927499;29;20036;-67
2023/05/08 15:53:31;;;;;;;15.57;11.50;;;;;;;;;;4940053;28;20036;-71
2023/05/08 15:56:20;;;;;;;14.50;11.20;;;;;;;;;;4926555;29;20057;-68
2023/05/08 15:59:05;;;;;;;22.95;13.85;;;;;;;;;;4940253;28;20038;-67
2023/05/08 16:01:50;;;;;;;16.85;11.63;;;;;;;;;;4929150;28;20044;-66
2023/05/08 16:04:35;;;;;;;16.02;11.10;;;;;;;;;;4926837;29;20050;-67
2023/05/08 16:07:21;;;;;;;14.30;11.75;;;;;;;;;;4926559;29;20036;-70
2023/05/08 16:10:06;;;;;;;12.60;10.98;;;;;;;;;;4918650;29;20445;-70
2023/05/08 16:12:52;;;;;;;16.92;10.60;;;;;;;;;;4931469;29;20365;-69
2023/05/08 16:15:37;;;;;;;15.88;11.20;;;;;;;;;;4925581;29;20051;-70
2023/05/08 16:18:22;;;;;;;15.48;12.00;;;;;;;;;;4923578;29;20036;-70
2023/05/08 16:21:08;;;;;;;16.00;12.45;;;;;;;;;;4926899;29;20371;-68
2023/05/08 16:23:54;;;;;;;16.40;11.43;;;;;;;;;;4949404;28;20058;-77